sensor_id;sensor_type;location;lat;lon;timestamp;pressure;altitude;pressure_sealevel;temperature;humidity
49611;BME280;35515;48.766;9.176;2023-01-26T00:00:51;98928.00;;;1.31;95.16
49611;BME280;35515;48.766;9.176;2023-01-26T00:03:18;98921.44;;;1.45;94.10
49611;BME280;35515;48.766;9.176;2023-01-26T00:05:45;98911.31;;;1.49;93.84
49611;BME280;35515;48.766;9.176;2023-01-26T00:08:13;98920.88;;;1.52;94.22
49611;BME280;35515;48.766;9.176;2023-01-26T00:10:40;98910.94;;;1.54;93.44
49611;BME280;35515;48.766;9.176;2023-01-26T00:13:15;98916.13;;;1.45;94.05
49611;BME280;35515;48.766;9.176;2023-01-26T00:15:41;98903.75;;;1.54;93.32
49611;BME280;35515;48.766;9.176;2023-01-26T00:18:08;98910.72;;;1.36;94.02
49611;BME280;35515;48.766;9.176;2023-01-26T00:20:34;98899.22;;;1.35;94.20
49611;BME280;35515;48.766;9.176;2023-01-26T00:23:01;98891.91;;;1.37;94.59
49611;BME280;35515;48.766;9.176;2023-01-26T00:25:29;98881.75;;;1.21;94.49
49611;BME280;35515;48.766;9.176;2023-01-26T00:27:56;98883.00;;;1.17;95.42
49611;BME280;35515;48.766;9.176;2023-01-26T00:30:22;98885.19;;;1.43;94.17
49611;BME280;35515;48.766;9.176;2023-01-26T00:32:49;98870.81;;;1.34;94.40
49611;BME280;35515;48.766;9.176;2023-01-26T00:35:16;98875.56;;;1.11;95.38
49611;BME280;35515;48.766;9.176;2023-01-26T00:37:42;98868.00;;;1.26;94.92
49611;BME280;35515;48.766;9.176;2023-01-26T00:40:10;98868.28;;;1.23;95.26
49611;BME280;35515;48.766;9.176;2023-01-26T00:42:38;98865.03;;;1.19;95.59
49611;BME280;35515;48.766;9.176;2023-01-26T00:45:05;98868.78;;;1.07;96.58
49611;BME280;35515;48.766;9.176;2023-01-26T00:47:32;98862.59;;;1.06;96.52
49611;BME280;35515;48.766;9.176;2023-01-26T00:49:58;98865.16;;;1.17;96.05
49611;BME280;35515;48.766;9.176;2023-01-26T00:52:25;98860.06;;;1.05;96.62
49611;BME280;35515;48.766;9.176;2023-01-26T00:54:51;98860.16;;;1.34;95.36
49611;BME280;35515;48.766;9.176;2023-01-26T00:57:18;98854.56;;;1.47;95.24
49611;BME280;35515;48.766;9.176;2023-01-26T00:59:46;98852.03;;;1.45;94.21
49611;BME280;35515;48.766;9.176;2023-01-26T01:02:12;98856.06;;;1.40;94.18
49611;BME280;35515;48.766;9.176;2023-01-26T01:04:39;98843.38;;;1.12;96.27
49611;BME280;35515;48.766;9.176;2023-01-26T01:07:05;98841.00;;;1.19;96.61
49611;BME280;35515;48.766;9.176;2023-01-26T01:09:32;98843.09;;;1.15;96.24
49611;BME280;35515;48.766;9.176;2023-01-26T01:11:59;98843.84;;;1.37;95.68
49611;BME280;35515;48.766;9.176;2023-01-26T01:14:25;98846.66;;;1.36;95.62
49611;BME280;35515;48.766;9.176;2023-01-26T01:16:53;98849.31;;;1.36;95.33
49611;BME280;35515;48.766;9.176;2023-01-26T01:19:19;98840.56;;;1.14;96.98
49611;BME280;35515;48.766;9.176;2023-01-26T01:21:46;98845.81;;;1.35;96.38
49611;BME280;35515;48.766;9.176;2023-01-26T01:24:13;98844.72;;;1.57;94.57
49611;BME280;35515;48.766;9.176;2023-01-26T01:26:39;98843.16;;;1.45;94.30
49611;BME280;35515;48.766;9.176;2023-01-26T01:29:06;98850.72;;;1.30;95.38
49611;BME280;35515;48.766;9.176;2023-01-26T01:31:33;98845.53;;;1.38;95.93
49611;BME280;35515;48.766;9.176;2023-01-26T01:34:01;98846.13;;;1.52;95.01
49611;BME280;35515;48.766;9.176;2023-01-26T01:36:27;98837.00;;;1.44;94.80
49611;BME280;35515;48.766;9.176;2023-01-26T01:38:56;98832.75;;;1.52;94.63
49611;BME280;35515;48.766;9.176;2023-01-26T01:41:22;98844.97;;;1.34;95.58
49611;BME280;35515;48.766;9.176;2023-01-26T01:43:49;98839.84;;;1.12;96.62
49611;BME280;35515;48.766;9.176;2023-01-26T01:46:21;98842.66;;;1.10;97.40
49611;BME280;35515;48.766;9.176;2023-01-26T01:48:52;98833.00;;;1.29;95.66
49611;BME280;35515;48.766;9.176;2023-01-26T01:51:30;98826.28;;;1.25;95.82
49611;BME280;35515;48.766;9.176;2023-01-26T01:54:01;98832.81;;;1.01;97.45
49611;BME280;35515;48.766;9.176;2023-01-26T01:56:30;98826.94;;;1.07;96.97
49611;BME280;35515;48.766;9.176;2023-01-26T01:58:59;98827.81;;;1.17;96.94
49611;BME280;35515;48.766;9.176;2023-01-26T02:01:26;98825.53;;;1.03;97.71
49611;BME280;35515;48.766;9.176;2023-01-26T02:03:55;98820.41;;;0.90;98.69
49611;BME280;35515;48.766;9.176;2023-01-26T02:06:28;98821.00;;;0.94;99.11
49611;BME280;35515;48.766;9.176;2023-01-26T02:08:57;98822.69;;;0.95;98.57
49611;BME280;35515;48.766;9.176;2023-01-26T02:11:27;98821.88;;;1.04;98.17
49611;BME280;35515;48.766;9.176;2023-01-26T02:13:57;98811.63;;;1.09;98.16
49611;BME280;35515;48.766;9.176;2023-01-26T02:16:24;98810.78;;;1.19;97.83
49611;BME280;35515;48.766;9.176;2023-01-26T02:18:50;98806.19;;;1.21;97.82
49611;BME280;35515;48.766;9.176;2023-01-26T02:21:19;98814.41;;;0.98;97.43
49611;BME280;35515;48.766;9.176;2023-01-26T02:24:06;98814.28;;;1.09;97.38
49611;BME280;35515;48.766;9.176;2023-01-26T02:26:36;98810.63;;;1.10;97.23
49611;BME280;35515;48.766;9.176;2023-01-26T02:29:05;98798.06;;;1.32;96.33
49611;BME280;35515;48.766;9.176;2023-01-26T02:31:32;98797.19;;;1.31;96.61
49611;BME280;35515;48.766;9.176;2023-01-26T02:34:00;98803.69;;;1.39;96.46
49611;BME280;35515;48.766;9.176;2023-01-26T02:36:28;98804.38;;;1.31;96.34
49611;BME280;35515;48.766;9.176;2023-01-26T02:39:03;98799.84;;;1.22;96.70
49611;BME280;35515;48.766;9.176;2023-01-26T02:41:36;98799.44;;;1.16;96.61
49611;BME280;35515;48.766;9.176;2023-01-26T02:44:20;98803.34;;;1.12;98.22
49611;BME280;35515;48.766;9.176;2023-01-26T02:46:47;98793.66;;;1.21;97.31
49611;BME280;35515;48.766;9.176;2023-01-26T02:49:13;98783.44;;;1.36;96.14
49611;BME280;35515;48.766;9.176;2023-01-26T02:51:57;98780.06;;;1.34;95.82
49611;BME280;35515;48.766;9.176;2023-01-26T02:54:24;98784.13;;;1.38;95.94
49611;BME280;35515;48.766;9.176;2023-01-26T02:57:09;98779.09;;;1.35;95.65
49611;BME280;35515;48.766;9.176;2023-01-26T02:59:36;98777.94;;;1.28;95.78
49611;BME280;35515;48.766;9.176;2023-01-26T03:02:02;98781.72;;;1.15;97.60
49611;BME280;35515;48.766;9.176;2023-01-26T03:04:29;98773.03;;;1.33;96.41
49611;BME280;35515;48.766;9.176;2023-01-26T03:06:55;98782.59;;;1.45;95.53
49611;BME280;35515;48.766;9.176;2023-01-26T03:09:22;98779.78;;;1.27;96.15
49611;BME280;35515;48.766;9.176;2023-01-26T03:11:48;98775.84;;;1.22;96.78
49611;BME280;35515;48.766;9.176;2023-01-26T03:14:17;98773.72;;;1.15;97.69
49611;BME280;35515;48.766;9.176;2023-01-26T03:16:43;98765.16;;;1.31;95.94
49611;BME280;35515;48.766;9.176;2023-01-26T03:19:12;98776.41;;;1.35;96.31
49611;BME280;35515;48.766;9.176;2023-01-26T03:21:57;98764.59;;;1.08;97.54
49611;BME280;35515;48.766;9.176;2023-01-26T03:24:41;98762.03;;;0.97;97.73
49611;BME280;35515;48.766;9.176;2023-01-26T03:27:25;98757.28;;;1.30;96.10
49611;BME280;35515;48.766;9.176;2023-01-26T03:29:53;98750.84;;;1.32;95.84
49611;BME280;35515;48.766;9.176;2023-01-26T03:32:19;98754.16;;;1.05;97.20
49611;BME280;35515;48.766;9.176;2023-01-26T03:34:46;98743.09;;;1.20;96.96
49611;BME280;35515;48.766;9.176;2023-01-26T03:37:13;98738.44;;;1.12;96.93
49611;BME280;35515;48.766;9.176;2023-01-26T03:39:39;98731.72;;;1.27;96.24
49611;BME280;35515;48.766;9.176;2023-01-26T03:42:23;98742.13;;;1.21;96.32
49611;BME280;35515;48.766;9.176;2023-01-26T03:45:09;98739.16;;;1.24;96.47
49611;BME280;35515;48.766;9.176;2023-01-26T03:48:02;98740.28;;;1.11;96.83
49611;BME280;35515;48.766;9.176;2023-01-26T03:50:46;98748.28;;;1.11;98.51
49611;BME280;35515;48.766;9.176;2023-01-26T03:53:30;98745.91;;;1.28;97.02
49611;BME280;35515;48.766;9.176;2023-01-26T03:56:13;98743.66;;;1.13;97.82
49611;BME280;35515;48.766;9.176;2023-01-26T03:58:42;98740.53;;;0.89;98.18
49611;BME280;35515;48.766;9.176;2023-01-26T04:01:11;98742.06;;;0.81;98.81
49611;BME280;35515;48.766;9.176;2023-01-26T04:03:45;98741.25;;;0.91;98.55
49611;BME280;35515;48.766;9.176;2023-01-26T04:06:29;98750.06;;;0.81;99.19
49611;BME280;35515;48.766;9.176;2023-01-26T04:09:13;98754.75;;;0.99;97.97
49611;BME280;35515;48.766;9.176;2023-01-26T04:11:39;98751.06;;;0.90;97.71
49611;BME280;35515;48.766;9.176;2023-01-26T04:14:09;98752.75;;;1.01;97.43
49611;BME280;35515;48.766;9.176;2023-01-26T04:16:55;98748.44;;;1.10;96.66
49611;BME280;35515;48.766;9.176;2023-01-26T04:19:39;98757.06;;;0.82;98.08
49611;BME280;35515;48.766;9.176;2023-01-26T04:22:23;98748.56;;;1.08;95.65
49611;BME280;35515;48.766;9.176;2023-01-26T04:24:50;98744.06;;;1.09;96.01
49611;BME280;35515;48.766;9.176;2023-01-26T04:27:16;98749.41;;;0.99;95.28
49611;BME280;35515;48.766;9.176;2023-01-26T04:29:43;98737.84;;;0.79;97.12
49611;BME280;35515;48.766;9.176;2023-01-26T04:32:10;98747.19;;;0.63;97.88
49611;BME280;35515;48.766;9.176;2023-01-26T04:34:37;98749.72;;;0.65;99.08
49611;BME280;35515;48.766;9.176;2023-01-26T04:37:03;98747.41;;;0.81;98.59
49611;BME280;35515;48.766;9.176;2023-01-26T04:39:30;98732.81;;;0.95;96.56
49611;BME280;35515;48.766;9.176;2023-01-26T04:41:56;98733.88;;;0.73;97.45
49611;BME280;35515;48.766;9.176;2023-01-26T04:44:23;98730.53;;;0.81;98.58
49611;BME280;35515;48.766;9.176;2023-01-26T04:46:50;98726.06;;;0.91;98.94
49611;BME280;35515;48.766;9.176;2023-01-26T04:49:17;98728.06;;;0.99;97.26
49611;BME280;35515;48.766;9.176;2023-01-26T04:51:44;98721.03;;;1.08;96.46
49611;BME280;35515;48.766;9.176;2023-01-26T04:54:10;98725.09;;;1.02;95.09
49611;BME280;35515;48.766;9.176;2023-01-26T04:56:37;98725.38;;;0.99;95.58
49611;BME280;35515;48.766;9.176;2023-01-26T04:59:05;98721.47;;;1.13;95.10
49611;BME280;35515;48.766;9.176;2023-01-26T05:01:33;98724.56;;;1.08;96.65
49611;BME280;35515;48.766;9.176;2023-01-26T05:03:59;98716.00;;;1.34;95.03
49611;BME280;35515;48.766;9.176;2023-01-26T05:06:27;98727.09;;;1.00;96.71
49611;BME280;35515;48.766;9.176;2023-01-26T05:08:54;98723.16;;;1.04;96.50
49611;BME280;35515;48.766;9.176;2023-01-26T05:11:20;98717.38;;;0.99;96.31
49611;BME280;35515;48.766;9.176;2023-01-26T05:13:47;98722.16;;;1.05;96.75
49611;BME280;35515;48.766;9.176;2023-01-26T05:16:14;98721.06;;;1.17;95.92
49611;BME280;35515;48.766;9.176;2023-01-26T05:18:41;98717.94;;;0.93;97.63
49611;BME280;35515;48.766;9.176;2023-01-26T05:21:08;98719.31;;;0.77;98.19
49611;BME280;35515;48.766;9.176;2023-01-26T05:23:36;98722.69;;;0.89;98.43
49611;BME280;35515;48.766;9.176;2023-01-26T05:26:05;98729.59;;;1.11;96.67
49611;BME280;35515;48.766;9.176;2023-01-26T05:28:33;98724.97;;;0.94;97.84
49611;BME280;35515;48.766;9.176;2023-01-26T05:30:59;98726.66;;;1.14;96.73
49611;BME280;35515;48.766;9.176;2023-01-26T05:33:26;98732.00;;;1.05;96.52
49611;BME280;35515;48.766;9.176;2023-01-26T05:35:53;98725.53;;;1.07;96.32
49611;BME280;35515;48.766;9.176;2023-01-26T05:38:19;98730.31;;;1.13;94.28
49611;BME280;35515;48.766;9.176;2023-01-26T05:40:47;98732.81;;;1.05;95.62
49611;BME280;35515;48.766;9.176;2023-01-26T05:43:14;98736.59;;;0.93;95.34
49611;BME280;35515;48.766;9.176;2023-01-26T05:45:41;98736.75;;;1.01;94.64
49611;BME280;35515;48.766;9.176;2023-01-26T05:48:07;98741.84;;;1.04;93.27
49611;BME280;35515;48.766;9.176;2023-01-26T05:50:34;98742.22;;;1.09;93.75
49611;BME280;35515;48.766;9.176;2023-01-26T05:53:00;98744.00;;;0.79;93.93
49611;BME280;35515;48.766;9.176;2023-01-26T05:55:27;98730.22;;;0.64;95.17
49611;BME280;35515;48.766;9.176;2023-01-26T05:57:55;98739.41;;;0.81;95.16
49611;BME280;35515;48.766;9.176;2023-01-26T06:00:22;98744.31;;;0.76;94.60
49611;BME280;35515;48.766;9.176;2023-01-26T06:02:48;98741.47;;;0.68;96.01
49611;BME280;35515;48.766;9.176;2023-01-26T06:05:15;98736.75;;;0.50;97.37
49611;BME280;35515;48.766;9.176;2023-01-26T06:07:42;98741.03;;;0.63;96.00
49611;BME280;35515;48.766;9.176;2023-01-26T06:10:09;98735.13;;;0.69;93.70
49611;BME280;35515;48.766;9.176;2023-01-26T06:12:36;98739.94;;;0.75;93.84
49611;BME280;35515;48.766;9.176;2023-01-26T06:15:06;98737.41;;;0.83;92.54
49611;BME280;35515;48.766;9.176;2023-01-26T06:17:32;98743.69;;;0.63;94.95
49611;BME280;35515;48.766;9.176;2023-01-26T06:19:59;98747.09;;;0.75;93.96
49611;BME280;35515;48.766;9.176;2023-01-26T06:22:25;98739.50;;;0.70;93.97
49611;BME280;35515;48.766;9.176;2023-01-26T06:24:52;98747.13;;;0.85;94.07
49611;BME280;35515;48.766;9.176;2023-01-26T06:27:18;98745.81;;;0.69;93.94
49611;BME280;35515;48.766;9.176;2023-01-26T06:29:45;98749.53;;;0.47;95.96
49611;BME280;35515;48.766;9.176;2023-01-26T06:32:13;98742.84;;;0.62;95.75
49611;BME280;35515;48.766;9.176;2023-01-26T06:34:40;98749.88;;;0.63;96.08
49611;BME280;35515;48.766;9.176;2023-01-26T06:37:06;98749.06;;;0.82;94.10
49611;BME280;35515;48.766;9.176;2023-01-26T06:39:33;98753.28;;;0.75;94.97
49611;BME280;35515;48.766;9.176;2023-01-26T06:42:00;98743.94;;;0.60;96.50
49611;BME280;35515;48.766;9.176;2023-01-26T06:44:27;98746.28;;;0.84;94.86
49611;BME280;35515;48.766;9.176;2023-01-26T06:46:53;98744.47;;;0.94;92.43
49611;BME280;35515;48.766;9.176;2023-01-26T06:49:21;98744.84;;;0.70;93.87
49611;BME280;35515;48.766;9.176;2023-01-26T06:51:58;98746.81;;;0.78;93.83
49611;BME280;35515;48.766;9.176;2023-01-26T06:54:28;98737.84;;;0.89;93.23
49611;BME280;35515;48.766;9.176;2023-01-26T06:56:54;98750.47;;;0.77;93.64
49611;BME280;35515;48.766;9.176;2023-01-26T06:59:21;98740.38;;;0.80;93.78
49611;BME280;35515;48.766;9.176;2023-01-26T07:01:47;98739.28;;;0.93;92.93
49611;BME280;35515;48.766;9.176;2023-01-26T07:04:15;98754.53;;;0.71;92.34
49611;BME280;35515;48.766;9.176;2023-01-26T07:06:44;98738.97;;;0.86;91.78
49611;BME280;35515;48.766;9.176;2023-01-26T07:09:10;98750.63;;;0.85;92.22
49611;BME280;35515;48.766;9.176;2023-01-26T07:11:37;98750.00;;;0.62;94.07
49611;BME280;35515;48.766;9.176;2023-01-26T07:14:03;98747.13;;;0.85;92.93
49611;BME280;35515;48.766;9.176;2023-01-26T07:16:30;98751.03;;;0.80;92.92
49611;BME280;35515;48.766;9.176;2023-01-26T07:18:56;98752.75;;;0.81;92.81
49611;BME280;35515;48.766;9.176;2023-01-26T07:21:23;98755.84;;;0.96;92.40
49611;BME280;35515;48.766;9.176;2023-01-26T07:23:51;98763.19;;;0.63;93.57
49611;BME280;35515;48.766;9.176;2023-01-26T07:26:18;98759.72;;;0.73;94.10
49611;BME280;35515;48.766;9.176;2023-01-26T07:28:45;98772.09;;;0.74;93.63
49611;BME280;35515;48.766;9.176;2023-01-26T07:31:11;98753.41;;;0.74;94.03
49611;BME280;35515;48.766;9.176;2023-01-26T07:33:38;98755.28;;;0.93;91.92
49611;BME280;35515;48.766;9.176;2023-01-26T07:36:05;98768.41;;;0.65;92.57
49611;BME280;35515;48.766;9.176;2023-01-26T07:38:32;98768.66;;;0.62;92.52
49611;BME280;35515;48.766;9.176;2023-01-26T07:41:04;98769.28;;;0.85;91.25
49611;BME280;35515;48.766;9.176;2023-01-26T07:43:32;98762.69;;;0.89;91.07
49611;BME280;35515;48.766;9.176;2023-01-26T07:45:58;98756.09;;;0.83;92.00
49611;BME280;35515;48.766;9.176;2023-01-26T07:48:25;98762.59;;;0.91;91.55
49611;BME280;35515;48.766;9.176;2023-01-26T07:50:57;98758.66;;;1.05;90.38
49611;BME280;35515;48.766;9.176;2023-01-26T07:53:24;98756.38;;;0.90;90.02
49611;BME280;35515;48.766;9.176;2023-01-26T07:55:53;98762.84;;;0.88;89.93
49611;BME280;35515;48.766;9.176;2023-01-26T07:58:21;98764.81;;;0.86;90.74
49611;BME280;35515;48.766;9.176;2023-01-26T08:00:48;98766.28;;;0.59;92.90
49611;BME280;35515;48.766;9.176;2023-01-26T08:03:14;98760.84;;;0.70;92.67
49611;BME280;35515;48.766;9.176;2023-01-26T08:05:41;98763.41;;;0.81;90.73
49611;BME280;35515;48.766;9.176;2023-01-26T08:08:08;98757.81;;;0.94;89.05
49611;BME280;35515;48.766;9.176;2023-01-26T08:10:35;98758.22;;;0.49;92.06
49611;BME280;35515;48.766;9.176;2023-01-26T08:13:01;98758.59;;;0.75;92.79
49611;BME280;35515;48.766;9.176;2023-01-26T08:15:29;98757.50;;;0.78;91.59
49611;BME280;35515;48.766;9.176;2023-01-26T08:17:56;98764.47;;;0.69;91.79
49611;BME280;35515;48.766;9.176;2023-01-26T08:20:22;98762.53;;;0.81;91.08
49611;BME280;35515;48.766;9.176;2023-01-26T08:22:49;98755.56;;;0.90;90.53
49611;BME280;35515;48.766;9.176;2023-01-26T08:25:16;98760.53;;;0.63;91.38
49611;BME280;35515;48.766;9.176;2023-01-26T08:27:42;98763.63;;;0.59;91.04
49611;BME280;35515;48.766;9.176;2023-01-26T08:30:10;98766.88;;;0.72;90.70
49611;BME280;35515;48.766;9.176;2023-01-26T08:32:38;98764.47;;;0.69;90.34
49611;BME280;35515;48.766;9.176;2023-01-26T08:35:05;98754.19;;;0.55;88.97
49611;BME280;35515;48.766;9.176;2023-01-26T08:37:32;98757.72;;;0.65;88.72
49611;BME280;35515;48.766;9.176;2023-01-26T08:39:59;98753.78;;;0.59;89.79
49611;BME280;35515;48.766;9.176;2023-01-26T08:42:25;98753.66;;;0.71;88.59
49611;BME280;35515;48.766;9.176;2023-01-26T08:44:52;98753.78;;;0.59;89.23
49611;BME280;35515;48.766;9.176;2023-01-26T08:47:18;98758.53;;;0.56;88.26
49611;BME280;35515;48.766;9.176;2023-01-26T08:49:46;98766.47;;;0.36;89.56
49611;BME280;35515;48.766;9.176;2023-01-26T08:52:12;98748.06;;;0.33;88.91
49611;BME280;35515;48.766;9.176;2023-01-26T08:54:39;98744.91;;;0.18;89.15
49611;BME280;35515;48.766;9.176;2023-01-26T08:57:05;98745.75;;;0.19;90.58
49611;BME280;35515;48.766;9.176;2023-01-26T08:59:32;98749.84;;;0.54;90.45
49611;BME280;35515;48.766;9.176;2023-01-26T09:01:58;98747.63;;;0.59;89.91
49611;BME280;35515;48.766;9.176;2023-01-26T09:04:25;98744.53;;;0.63;88.93
49611;BME280;35515;48.766;9.176;2023-01-26T09:06:53;98747.22;;;0.32;88.71
49611;BME280;35515;48.766;9.176;2023-01-26T09:09:20;98752.41;;;0.65;89.10
49611;BME280;35515;48.766;9.176;2023-01-26T09:11:47;98750.38;;;0.47;88.48
49611;BME280;35515;48.766;9.176;2023-01-26T09:14:13;98746.25;;;0.33;88.12
49611;BME280;35515;48.766;9.176;2023-01-26T09:16:40;98742.06;;;0.41;87.48
49611;BME280;35515;48.766;9.176;2023-01-26T09:19:06;98739.38;;;0.31;89.10
49611;BME280;35515;48.766;9.176;2023-01-26T09:21:33;98748.44;;;0.49;88.72
49611;BME280;35515;48.766;9.176;2023-01-26T09:24:00;98738.06;;;0.56;87.86
49611;BME280;35515;48.766;9.176;2023-01-26T09:26:28;98743.22;;;0.48;89.10
49611;BME280;35515;48.766;9.176;2023-01-26T09:28:55;98753.16;;;0.36;89.81
49611;BME280;35515;48.766;9.176;2023-01-26T09:31:21;98741.31;;;0.29;90.27
49611;BME280;35515;48.766;9.176;2023-01-26T09:33:48;98755.63;;;0.28;89.51
49611;BME280;35515;48.766;9.176;2023-01-26T09:36:15;98755.13;;;0.44;88.52
49611;BME280;35515;48.766;9.176;2023-01-26T09:38:41;98754.00;;;0.46;89.27
49611;BME280;35515;48.766;9.176;2023-01-26T09:41:20;98763.38;;;0.31;89.43
49611;BME280;35515;48.766;9.176;2023-01-26T09:43:50;98761.25;;;0.35;89.21
49611;BME280;35515;48.766;9.176;2023-01-26T09:46:20;98769.19;;;0.56;88.70
49611;BME280;35515;48.766;9.176;2023-01-26T09:48:54;98767.75;;;0.42;88.37
49611;BME280;35515;48.766;9.176;2023-01-26T09:51:26;98760.59;;;0.42;88.70
49611;BME280;35515;48.766;9.176;2023-01-26T09:53:56;98761.13;;;0.67;88.52
49611;BME280;35515;48.766;9.176;2023-01-26T09:56:27;98761.66;;;0.61;88.22
49611;BME280;35515;48.766;9.176;2023-01-26T09:58:59;98759.69;;;0.63;87.24
49611;BME280;35515;48.766;9.176;2023-01-26T10:01:32;98758.53;;;0.56;87.79
49611;BME280;35515;48.766;9.176;2023-01-26T10:04:04;98756.22;;;0.41;88.53
49611;BME280;35515;48.766;9.176;2023-01-26T10:06:37;98757.97;;;0.52;87.99
49611;BME280;35515;48.766;9.176;2023-01-26T10:09:07;98757.50;;;0.16;89.34
49611;BME280;35515;48.766;9.176;2023-01-26T10:11:42;98755.09;;;0.34;89.96
49611;BME280;35515;48.766;9.176;2023-01-26T10:14:10;98763.69;;;0.47;88.24
49611;BME280;35515;48.766;9.176;2023-01-26T10:16:39;98759.63;;;0.43;87.71
49611;BME280;35515;48.766;9.176;2023-01-26T10:19:12;98764.84;;;0.55;85.85
49611;BME280;35515;48.766;9.176;2023-01-26T10:21:43;98753.84;;;0.38;86.21
49611;BME280;35515;48.766;9.176;2023-01-26T10:24:21;98753.75;;;0.49;86.11
49611;BME280;35515;48.766;9.176;2023-01-26T10:26:52;98751.84;;;0.61;84.82
49611;BME280;35515;48.766;9.176;2023-01-26T10:29:21;98748.53;;;0.48;84.15
49611;BME280;35515;48.766;9.176;2023-01-26T10:31:48;98749.28;;;0.60;84.13
49611;BME280;35515;48.766;9.176;2023-01-26T10:34:16;98762.00;;;0.77;84.28
49611;BME280;35515;48.766;9.176;2023-01-26T10:36:44;98756.94;;;0.33;85.31
49611;BME280;35515;48.766;9.176;2023-01-26T10:39:12;98761.94;;;0.58;84.99
49611;BME280;35515;48.766;9.176;2023-01-26T10:41:39;98758.44;;;0.67;83.27
49611;BME280;35515;48.766;9.176;2023-01-26T10:44:21;98757.28;;;0.60;83.89
49611;BME280;35515;48.766;9.176;2023-01-26T10:47:01;98749.28;;;0.60;85.22
49611;BME280;35515;48.766;9.176;2023-01-26T10:49:29;98753.00;;;0.38;84.97
49611;BME280;35515;48.766;9.176;2023-01-26T10:52:06;98752.59;;;0.42;83.98
49611;BME280;35515;48.766;9.176;2023-01-26T10:54:34;98762.22;;;0.64;82.72
49611;BME280;35515;48.766;9.176;2023-01-26T10:57:03;98743.66;;;0.53;82.41
49611;BME280;35515;48.766;9.176;2023-01-26T10:59:36;98746.13;;;0.35;83.52
49611;BME280;35515;48.766;9.176;2023-01-26T11:02:20;98752.41;;;0.24;85.09
49611;BME280;35515;48.766;9.176;2023-01-26T11:05:13;98744.75;;;0.50;83.41
49611;BME280;35515;48.766;9.176;2023-01-26T11:07:42;98748.44;;;0.49;83.12
49611;BME280;35515;48.766;9.176;2023-01-26T11:10:19;98750.34;;;0.38;83.65
49611;BME280;35515;48.766;9.176;2023-01-26T11:12:46;98737.75;;;0.49;83.13
49611;BME280;35515;48.766;9.176;2023-01-26T11:15:17;98736.41;;;0.65;82.83
49611;BME280;35515;48.766;9.176;2023-01-26T11:17:50;98735.03;;;0.80;81.91
49611;BME280;35515;48.766;9.176;2023-01-26T11:20:45;98731.44;;;0.50;82.99
49611;BME280;35515;48.766;9.176;2023-01-26T11:23:20;98729.75;;;0.19;85.06
49611;BME280;35515;48.766;9.176;2023-01-26T11:26:01;98724.13;;;0.12;87.00
49611;BME280;35515;48.766;9.176;2023-01-26T11:28:37;98722.19;;;0.55;86.04
49611;BME280;35515;48.766;9.176;2023-01-26T11:31:15;98725.31;;;0.29;85.84
49611;BME280;35515;48.766;9.176;2023-01-26T11:33:55;98715.56;;;0.49;85.86
49611;BME280;35515;48.766;9.176;2023-01-26T11:36:35;98717.72;;;0.55;85.85
49611;BME280;35515;48.766;9.176;2023-01-26T11:39:10;98713.63;;;0.51;86.59
49611;BME280;35515;48.766;9.176;2023-01-26T11:41:48;98716.47;;;0.69;84.45
49611;BME280;35515;48.766;9.176;2023-01-26T11:44:33;98712.88;;;0.29;86.23
49611;BME280;35515;48.766;9.176;2023-01-26T11:47:16;98707.59;;;0.08;88.36
49611;BME280;35515;48.766;9.176;2023-01-26T11:50:02;98712.56;;;0.23;88.50
49611;BME280;35515;48.766;9.176;2023-01-26T11:52:35;98708.06;;;0.23;87.87
49611;BME280;35515;48.766;9.176;2023-01-26T11:55:21;98706.97;;;0.36;87.66
49611;BME280;35515;48.766;9.176;2023-01-26T11:58:01;98696.13;;;0.18;87.64
49611;BME280;35515;48.766;9.176;2023-01-26T12:00:34;98707.63;;;0.28;87.59
49611;BME280;35515;48.766;9.176;2023-01-26T12:03:13;98693.63;;;0.26;86.94
49611;BME280;35515;48.766;9.176;2023-01-26T12:05:43;98692.75;;;0.25;87.77
49611;BME280;35515;48.766;9.176;2023-01-26T12:08:14;98687.66;;;0.53;85.62
49611;BME280;35515;48.766;9.176;2023-01-26T12:10:47;98693.94;;;0.42;86.79
49611;BME280;35515;48.766;9.176;2023-01-26T12:13:21;98689.19;;;0.36;87.54
49611;BME280;35515;48.766;9.176;2023-01-26T12:15:55;98680.13;;;0.18;85.82
49611;BME280;35515;48.766;9.176;2023-01-26T12:18:28;98679.28;;;0.17;86.57
49611;BME280;35515;48.766;9.176;2023-01-26T12:21:01;98672.22;;;0.06;87.53
49611;BME280;35515;48.766;9.176;2023-01-26T12:23:32;98679.63;;;0.33;86.03
49611;BME280;35515;48.766;9.176;2023-01-26T12:26:06;98671.94;;;0.50;83.86
49611;BME280;35515;48.766;9.176;2023-01-26T12:28:38;98676.38;;;0.30;83.77
49611;BME280;35515;48.766;9.176;2023-01-26T12:31:12;98669.56;;;0.47;82.60
49611;BME280;35515;48.766;9.176;2023-01-26T12:33:43;98661.56;;;0.47;82.55
49611;BME280;35515;48.766;9.176;2023-01-26T12:36:38;98667.63;;;0.59;82.31
49611;BME280;35515;48.766;9.176;2023-01-26T12:39:11;98657.19;;;0.36;83.59
49611;BME280;35515;48.766;9.176;2023-01-26T12:41:56;98657.19;;;0.36;83.66
49611;BME280;35515;48.766;9.176;2023-01-26T12:44:34;98660.97;;;0.33;84.34
49611;BME280;35515;48.766;9.176;2023-01-26T12:47:07;98654.34;;;0.28;84.21
49611;BME280;35515;48.766;9.176;2023-01-26T12:49:39;98656.31;;;0.26;84.52
49611;BME280;35515;48.766;9.176;2023-01-26T12:52:14;98640.97;;;0.08;85.71
49611;BME280;35515;48.766;9.176;2023-01-26T12:54:44;98645.09;;;0.32;84.81
49611;BME280;35515;48.766;9.176;2023-01-26T12:57:15;98639.75;;;0.32;84.69
49611;BME280;35515;48.766;9.176;2023-01-26T12:59:43;98642.44;;;0.32;84.79
49611;BME280;35515;48.766;9.176;2023-01-26T13:02:20;98647.56;;;0.04;87.37
49611;BME280;35515;48.766;9.176;2023-01-26T13:04:50;98649.81;;;0.19;87.68
49611;BME280;35515;48.766;9.176;2023-01-26T13:07:28;98649.16;;;0.26;87.47
49611;BME280;35515;48.766;9.176;2023-01-26T13:10:18;98648.19;;;0.37;86.26
49611;BME280;35515;48.766;9.176;2023-01-26T13:12:46;98647.59;;;0.24;87.75
49611;BME280;35515;48.766;9.176;2023-01-26T13:15:15;98643.06;;;0.45;87.00
49611;BME280;35515;48.766;9.176;2023-01-26T13:17:51;98641.22;;;0.36;86.21
49611;BME280;35515;48.766;9.176;2023-01-26T13:20:41;98640.03;;;0.29;87.55
49611;BME280;35515;48.766;9.176;2023-01-26T13:23:37;98642.84;;;0.18;88.59
49611;BME280;35515;48.766;9.176;2023-01-26T13:26:16;98638.13;;;0.41;86.86